sensor_id;sensor_type;location;lat;lon;timestamp;P1;durP1;ratioP1;P2;durP2;ratioP2
17524;SDS011;40431;52.198;9.902;2023-04-24T00:00:58;1.20;;;1.20;;
17524;SDS011;40431;52.198;9.902;2023-04-24T00:03:26;1.30;;;1.30;;
17524;SDS011;40431;52.198;9.902;2023-04-24T00:05:53;1.37;;;1.27;;
17524;SDS011;40431;52.198;9.902;2023-04-24T00:08:19;1.50;;;1.40;;
17524;SDS011;40431;52.198;9.902;2023-04-24T00:10:48;2.10;;;1.40;;
17524;SDS011;40431;52.198;9.902;2023-04-24T00:13:15;1.47;;;1.37;;
17524;SDS011;40431;52.198;9.902;2023-04-24T00:15:41;1.30;;;1.30;;
17524;SDS011;40431;52.198;9.902;2023-04-24T00:18:08;1.07;;;1.07;;
17524;SDS011;40431;52.198;9.902;2023-04-24T00:20:34;3.27;;;1.40;;
17524;SDS011;40431;52.198;9.902;2023-04-24T00:23:01;1.40;;;1.30;;
17524;SDS011;40431;52.198;9.902;2023-04-24T00:25:27;1.70;;;1.60;;
17524;SDS011;40431;52.198;9.902;2023-04-24T00:27:55;2.10;;;1.30;;
17524;SDS011;40431;52.198;9.902;2023-04-24T00:30:21;1.90;;;1.67;;
17524;SDS011;40431;52.198;9.902;2023-04-24T00:32:48;1.43;;;1.30;;
17524;SDS011;40431;52.198;9.902;2023-04-24T00:35:14;1.40;;;1.30;;
17524;SDS011;40431;52.198;9.902;2023-04-24T00:37:41;1.70;;;1.60;;
17524;SDS011;40431;52.198;9.902;2023-04-24T00:40:07;1.40;;;1.40;;
17524;SDS011;40431;52.198;9.902;2023-04-24T00:42:34;2.07;;;1.80;;
17524;SDS011;40431;52.198;9.902;2023-04-24T00:45:02;1.57;;;1.47;;
17524;SDS011;40431;52.198;9.902;2023-04-24T00:47:30;1.53;;;1.43;;
17524;SDS011;40431;52.198;9.902;2023-04-24T00:49:59;1.13;;;1.13;;
17524;SDS011;40431;52.198;9.902;2023-04-24T00:52:27;2.97;;;1.97;;
17524;SDS011;40431;52.198;9.902;2023-04-24T00:54:56;1.80;;;1.43;;
17524;SDS011;40431;52.198;9.902;2023-04-24T00:57:22;1.57;;;1.47;;
17524;SDS011;40431;52.198;9.902;2023-04-24T00:59:49;1.63;;;1.53;;
17524;SDS011;40431;52.198;9.902;2023-04-24T01:02:18;1.83;;;1.30;;
17524;SDS011;40431;52.198;9.902;2023-04-24T01:04:45;1.60;;;1.50;;
17524;SDS011;40431;52.198;9.902;2023-04-24T01:07:12;1.70;;;1.60;;
17524;SDS011;40431;52.198;9.902;2023-04-24T01:09:38;1.50;;;1.50;;
17524;SDS011;40431;52.198;9.902;2023-04-24T01:12:06;1.70;;;1.57;;
17524;SDS011;40431;52.198;9.902;2023-04-24T01:14:32;1.87;;;1.77;;
17524;SDS011;40431;52.198;9.902;2023-04-24T01:16:59;1.47;;;1.30;;
17524;SDS011;40431;52.198;9.902;2023-04-24T01:19:27;1.40;;;1.30;;
17524;SDS011;40431;52.198;9.902;2023-04-24T01:21:54;1.60;;;1.50;;
17524;SDS011;40431;52.198;9.902;2023-04-24T01:24:25;1.73;;;1.60;;
17524;SDS011;40431;52.198;9.902;2023-04-24T01:26:52;2.10;;;1.70;;
17524;SDS011;40431;52.198;9.902;2023-04-24T01:29:18;1.70;;;1.60;;
17524;SDS011;40431;52.198;9.902;2023-04-24T01:31:45;1.63;;;1.53;;
17524;SDS011;40431;52.198;9.902;2023-04-24T01:34:12;1.77;;;1.67;;
17524;SDS011;40431;52.198;9.902;2023-04-24T01:36:39;1.57;;;1.47;;
17524;SDS011;40431;52.198;9.902;2023-04-24T01:39:07;1.70;;;1.60;;
17524;SDS011;40431;52.198;9.902;2023-04-24T01:41:35;1.87;;;1.77;;
17524;SDS011;40431;52.198;9.902;2023-04-24T01:44:02;2.40;;;1.70;;
17524;SDS011;40431;52.198;9.902;2023-04-24T01:46:28;1.90;;;1.40;;
17524;SDS011;40431;52.198;9.902;2023-04-24T01:48:56;1.27;;;1.13;;
17524;SDS011;40431;52.198;9.902;2023-04-24T01:51:25;1.70;;;1.60;;
17524;SDS011;40431;52.198;9.902;2023-04-24T01:53:52;1.70;;;1.60;;
17524;SDS011;40431;52.198;9.902;2023-04-24T01:56:18;1.40;;;1.30;;
17524;SDS011;40431;52.198;9.902;2023-04-24T01:58:47;1.50;;;1.40;;
17524;SDS011;40431;52.198;9.902;2023-04-24T02:01:15;1.50;;;1.40;;
17524;SDS011;40431;52.198;9.902;2023-04-24T02:03:44;1.80;;;1.60;;
17524;SDS011;40431;52.198;9.902;2023-04-24T02:06:10;1.70;;;1.60;;
17524;SDS011;40431;52.198;9.902;2023-04-24T02:08:37;1.50;;;1.40;;
17524;SDS011;40431;52.198;9.902;2023-04-24T02:11:03;1.70;;;1.60;;
17524;SDS011;40431;52.198;9.902;2023-04-24T02:13:30;1.60;;;1.50;;
17524;SDS011;40431;52.198;9.902;2023-04-24T02:15:59;2.10;;;1.70;;
17524;SDS011;40431;52.198;9.902;2023-04-24T02:18:25;1.40;;;1.30;;
17524;SDS011;40431;52.198;9.902;2023-04-24T02:20:51;1.50;;;1.40;;
17524;SDS011;40431;52.198;9.902;2023-04-24T02:23:18;1.43;;;1.33;;
17524;SDS011;40431;52.198;9.902;2023-04-24T02:25:45;2.27;;;1.40;;
17524;SDS011;40431;52.198;9.902;2023-04-24T02:28:12;1.27;;;1.27;;
17524;SDS011;40431;52.198;9.902;2023-04-24T02:30:38;1.27;;;1.27;;
17524;SDS011;40431;52.198;9.902;2023-04-24T02:33:06;1.20;;;1.20;;
17524;SDS011;40431;52.198;9.902;2023-04-24T02:35:32;1.53;;;1.43;;
17524;SDS011;40431;52.198;9.902;2023-04-24T02:37:58;1.57;;;1.47;;
17524;SDS011;40431;52.198;9.902;2023-04-24T02:40:25;1.40;;;1.10;;
17524;SDS011;40431;52.198;9.902;2023-04-24T02:42:51;1.37;;;1.20;;
17524;SDS011;40431;52.198;9.902;2023-04-24T02:45:17;1.50;;;1.40;;
17524;SDS011;40431;52.198;9.902;2023-04-24T02:47:44;1.33;;;1.30;;
17524;SDS011;40431;52.198;9.902;2023-04-24T02:50:11;2.33;;;1.70;;
17524;SDS011;40431;52.198;9.902;2023-04-24T02:52:38;1.67;;;1.57;;
17524;SDS011;40431;52.198;9.902;2023-04-24T02:55:05;1.33;;;1.10;;
17524;SDS011;40431;52.198;9.902;2023-04-24T02:57:32;1.40;;;1.30;;
17524;SDS011;40431;52.198;9.902;2023-04-24T02:59:59;1.00;;;1.00;;
17524;SDS011;40431;52.198;9.902;2023-04-24T03:02:25;1.80;;;1.20;;
17524;SDS011;40431;52.198;9.902;2023-04-24T03:04:52;1.23;;;1.13;;
17524;SDS011;40431;52.198;9.902;2023-04-24T03:07:19;1.07;;;1.07;;
17524;SDS011;40431;52.198;9.902;2023-04-24T03:09:46;1.30;;;1.30;;
17524;SDS011;40431;52.198;9.902;2023-04-24T03:12:13;1.20;;;1.20;;
17524;SDS011;40431;52.198;9.902;2023-04-24T03:14:39;1.00;;;1.00;;
17524;SDS011;40431;52.198;9.902;2023-04-24T03:17:05;1.00;;;1.00;;
17524;SDS011;40431;52.198;9.902;2023-04-24T03:19:32;1.30;;;1.20;;
17524;SDS011;40431;52.198;9.902;2023-04-24T03:21:58;1.40;;;1.33;;
17524;SDS011;40431;52.198;9.902;2023-04-24T03:24:26;1.50;;;1.50;;
17524;SDS011;40431;52.198;9.902;2023-04-24T03:26:53;1.20;;;1.20;;
17524;SDS011;40431;52.198;9.902;2023-04-24T03:29:21;1.30;;;1.20;;
17524;SDS011;40431;52.198;9.902;2023-04-24T03:31:47;2.50;;;1.10;;
17524;SDS011;40431;52.198;9.902;2023-04-24T03:34:13;1.30;;;1.20;;
17524;SDS011;40431;52.198;9.902;2023-04-24T03:36:40;1.30;;;1.10;;
17524;SDS011;40431;52.198;9.902;2023-04-24T03:39:06;1.30;;;1.20;;
17524;SDS011;40431;52.198;9.902;2023-04-24T03:41:34;1.70;;;1.60;;
17524;SDS011;40431;52.198;9.902;2023-04-24T03:44:00;1.60;;;1.50;;
17524;SDS011;40431;52.198;9.902;2023-04-24T03:46:26;1.40;;;1.30;;
17524;SDS011;40431;52.198;9.902;2023-04-24T03:48:53;1.13;;;1.13;;
17524;SDS011;40431;52.198;9.902;2023-04-24T03:51:19;1.47;;;1.00;;
17524;SDS011;40431;52.198;9.902;2023-04-24T03:53:46;1.40;;;1.40;;
17524;SDS011;40431;52.198;9.902;2023-04-24T03:56:13;1.33;;;1.20;;
17524;SDS011;40431;52.198;9.902;2023-04-24T03:58:40;1.03;;;1.00;;
17524;SDS011;40431;52.198;9.902;2023-04-24T04:01:08;1.60;;;1.33;;
17524;SDS011;40431;52.198;9.902;2023-04-24T04:03:35;1.23;;;1.10;;
17524;SDS011;40431;52.198;9.902;2023-04-24T04:06:01;1.13;;;1.07;;
17524;SDS011;40431;52.198;9.902;2023-04-24T04:08:29;0.90;;;0.90;;
17524;SDS011;40431;52.198;9.902;2023-04-24T04:10:55;1.20;;;1.10;;
17524;SDS011;40431;52.198;9.902;2023-04-24T04:13:22;1.20;;;1.10;;
17524;SDS011;40431;52.198;9.902;2023-04-24T04:15:49;1.10;;;1.10;;
17524;SDS011;40431;52.198;9.902;2023-04-24T04:18:16;1.47;;;1.30;;
17524;SDS011;40431;52.198;9.902;2023-04-24T04:20:42;1.03;;;1.03;;
17524;SDS011;40431;52.198;9.902;2023-04-24T04:23:08;1.33;;;1.23;;
17524;SDS011;40431;52.198;9.902;2023-04-24T04:25:35;1.40;;;1.30;;
17524;SDS011;40431;52.198;9.902;2023-04-24T04:28:01;1.57;;;1.17;;
17524;SDS011;40431;52.198;9.902;2023-04-24T04:30:28;1.37;;;1.27;;
17524;SDS011;40431;52.198;9.902;2023-04-24T04:32:58;1.10;;;1.10;;
17524;SDS011;40431;52.198;9.902;2023-04-24T04:35:25;1.80;;;1.10;;
17524;SDS011;40431;52.198;9.902;2023-04-24T04:37:51;1.10;;;1.10;;
17524;SDS011;40431;52.198;9.902;2023-04-24T04:40:18;1.60;;;1.27;;
17524;SDS011;40431;52.198;9.902;2023-04-24T04:42:44;1.07;;;1.00;;
17524;SDS011;40431;52.198;9.902;2023-04-24T04:45:11;1.70;;;1.60;;
17524;SDS011;40431;52.198;9.902;2023-04-24T04:47:37;1.60;;;1.50;;
17524;SDS011;40431;52.198;9.902;2023-04-24T04:50:06;1.23;;;1.23;;
17524;SDS011;40431;52.198;9.902;2023-04-24T04:52:33;1.37;;;1.27;;
17524;SDS011;40431;52.198;9.902;2023-04-24T04:54:59;1.43;;;1.33;;
17524;SDS011;40431;52.198;9.902;2023-04-24T04:57:25;1.70;;;1.60;;
17524;SDS011;40431;52.198;9.902;2023-04-24T04:59:52;1.63;;;1.53;;
17524;SDS011;40431;52.198;9.902;2023-04-24T05:02:18;1.23;;;1.23;;
17524;SDS011;40431;52.198;9.902;2023-04-24T05:04:45;1.70;;;1.60;;
17524;SDS011;40431;52.198;9.902;2023-04-24T05:07:13;1.30;;;1.20;;
17524;SDS011;40431;52.198;9.902;2023-04-24T05:09:39;1.97;;;1.20;;
17524;SDS011;40431;52.198;9.902;2023-04-24T05:12:06;1.20;;;1.10;;
17524;SDS011;40431;52.198;9.902;2023-04-24T05:14:33;1.67;;;1.57;;
17524;SDS011;40431;52.198;9.902;2023-04-24T05:16:59;1.17;;;1.10;;
17524;SDS011;40431;52.198;9.902;2023-04-24T05:19:26;1.17;;;1.10;;
17524;SDS011;40431;52.198;9.902;2023-04-24T05:21:52;1.50;;;1.40;;
17524;SDS011;40431;52.198;9.902;2023-04-24T05:24:20;1.70;;;1.50;;
17524;SDS011;40431;52.198;9.902;2023-04-24T05:26:46;1.33;;;1.20;;
17524;SDS011;40431;52.198;9.902;2023-04-24T05:29:12;1.20;;;1.20;;
17524;SDS011;40431;52.198;9.902;2023-04-24T05:31:39;1.30;;;1.20;;
17524;SDS011;40431;52.198;9.902;2023-04-24T05:34:05;1.43;;;1.23;;
17524;SDS011;40431;52.198;9.902;2023-04-24T05:36:32;1.33;;;1.07;;
17524;SDS011;40431;52.198;9.902;2023-04-24T05:38:58;1.03;;;1.03;;
17524;SDS011;40431;52.198;9.902;2023-04-24T05:41:26;1.37;;;1.37;;
17524;SDS011;40431;52.198;9.902;2023-04-24T05:43:52;0.90;;;0.90;;
17524;SDS011;40431;52.198;9.902;2023-04-24T05:46:19;1.20;;;1.20;;
17524;SDS011;40431;52.198;9.902;2023-04-24T05:48:45;2.17;;;1.63;;
17524;SDS011;40431;52.198;9.902;2023-04-24T05:51:12;1.63;;;1.30;;
17524;SDS011;40431;52.198;9.902;2023-04-24T05:53:38;1.40;;;1.30;;
17524;SDS011;40431;52.198;9.902;2023-04-24T05:56:05;2.27;;;1.10;;
17524;SDS011;40431;52.198;9.902;2023-04-24T05:58:32;1.00;;;1.00;;
17524;SDS011;40431;52.198;9.902;2023-04-24T06:00:59;2.40;;;2.30;;
17524;SDS011;40431;52.198;9.902;2023-04-24T06:03:26;1.80;;;1.70;;
17524;SDS011;40431;52.198;9.902;2023-04-24T06:05:53;1.50;;;1.07;;
17524;SDS011;40431;52.198;9.902;2023-04-24T06:08:20;1.53;;;1.20;;
17524;SDS011;40431;52.198;9.902;2023-04-24T06:10:48;1.30;;;1.30;;
17524;SDS011;40431;52.198;9.902;2023-04-24T06:13:15;1.13;;;1.07;;
17524;SDS011;40431;52.198;9.902;2023-04-24T06:15:43;1.30;;;1.27;;
17524;SDS011;40431;52.198;9.902;2023-04-24T06:18:09;1.00;;;1.00;;
17524;SDS011;40431;52.198;9.902;2023-04-24T06:20:36;1.10;;;1.10;;
17524;SDS011;40431;52.198;9.902;2023-04-24T06:23:02;1.27;;;1.13;;
17524;SDS011;40431;52.198;9.902;2023-04-24T06:25:28;1.87;;;1.40;;
17524;SDS011;40431;52.198;9.902;2023-04-24T06:27:57;1.40;;;1.40;;
17524;SDS011;40431;52.198;9.902;2023-04-24T06:30:26;1.20;;;1.20;;
17524;SDS011;40431;52.198;9.902;2023-04-24T06:32:54;1.43;;;1.33;;
17524;SDS011;40431;52.198;9.902;2023-04-24T06:35:20;2.27;;;1.60;;
17524;SDS011;40431;52.198;9.902;2023-04-24T06:37:47;1.40;;;1.30;;
17524;SDS011;40431;52.198;9.902;2023-04-24T06:40:13;1.30;;;1.30;;
17524;SDS011;40431;52.198;9.902;2023-04-24T06:42:40;1.80;;;1.70;;
17524;SDS011;40431;52.198;9.902;2023-04-24T06:45:07;2.20;;;1.37;;
17524;SDS011;40431;52.198;9.902;2023-04-24T06:47:34;1.70;;;1.60;;
17524;SDS011;40431;52.198;9.902;2023-04-24T06:50:02;1.63;;;1.53;;
17524;SDS011;40431;52.198;9.902;2023-04-24T06:52:28;1.70;;;1.60;;
17524;SDS011;40431;52.198;9.902;2023-04-24T06:54:59;2.60;;;2.23;;
17524;SDS011;40431;52.198;9.902;2023-04-24T06:57:26;2.03;;;1.93;;
17524;SDS011;40431;52.198;9.902;2023-04-24T06:59:52;2.33;;;2.20;;
17524;SDS011;40431;52.198;9.902;2023-04-24T07:02:19;2.30;;;2.20;;
17524;SDS011;40431;52.198;9.902;2023-04-24T07:04:45;1.90;;;1.80;;
17524;SDS011;40431;52.198;9.902;2023-04-24T07:07:13;2.43;;;2.23;;
17524;SDS011;40431;52.198;9.902;2023-04-24T07:09:41;2.57;;;1.90;;
17524;SDS011;40431;52.198;9.902;2023-04-24T07:12:09;2.50;;;2.17;;
17524;SDS011;40431;52.198;9.902;2023-04-24T07:14:36;2.77;;;2.57;;
17524;SDS011;40431;52.198;9.902;2023-04-24T07:17:02;2.10;;;2.00;;
17524;SDS011;40431;52.198;9.902;2023-04-24T07:19:29;2.80;;;2.60;;
17524;SDS011;40431;52.198;9.902;2023-04-24T07:21:56;2.63;;;2.43;;
17524;SDS011;40431;52.198;9.902;2023-04-24T07:24:24;2.80;;;2.60;;
17524;SDS011;40431;52.198;9.902;2023-04-24T07:26:50;3.30;;;3.10;;
17524;SDS011;40431;52.198;9.902;2023-04-24T07:29:17;5.30;;;3.33;;
17524;SDS011;40431;52.198;9.902;2023-04-24T07:31:44;3.50;;;3.30;;
17524;SDS011;40431;52.198;9.902;2023-04-24T07:34:11;3.57;;;3.37;;
17524;SDS011;40431;52.198;9.902;2023-04-24T07:36:37;3.70;;;3.50;;
17524;SDS011;40431;52.198;9.902;2023-04-24T07:39:04;3.30;;;3.10;;
17524;SDS011;40431;52.198;9.902;2023-04-24T07:41:32;4.27;;;4.07;;
17524;SDS011;40431;52.198;9.902;2023-04-24T07:43:58;4.87;;;4.47;;
17524;SDS011;40431;52.198;9.902;2023-04-24T07:46:25;4.43;;;4.20;;
17524;SDS011;40431;52.198;9.902;2023-04-24T07:48:54;5.07;;;4.77;;
17524;SDS011;40431;52.198;9.902;2023-04-24T07:51:21;5.33;;;4.93;;
17524;SDS011;40431;52.198;9.902;2023-04-24T07:53:47;5.57;;;5.17;;
17524;SDS011;40431;52.198;9.902;2023-04-24T07:56:13;5.97;;;5.47;;
17524;SDS011;40431;52.198;9.902;2023-04-24T07:58:41;6.07;;;5.67;;
17524;SDS011;40431;52.198;9.902;2023-04-24T08:01:07;7.07;;;6.57;;
17524;SDS011;40431;52.198;9.902;2023-04-24T08:03:34;5.93;;;5.53;;
17524;SDS011;40431;52.198;9.902;2023-04-24T08:06:00;6.80;;;6.30;;
17524;SDS011;40431;52.198;9.902;2023-04-24T08:08:27;6.73;;;6.23;;
17524;SDS011;40431;52.198;9.902;2023-04-24T08:10:53;7.33;;;6.83;;
17524;SDS011;40431;52.198;9.902;2023-04-24T08:13:19;6.47;;;6.03;;
17524;SDS011;40431;52.198;9.902;2023-04-24T08:15:47;6.80;;;6.20;;
17524;SDS011;40431;52.198;9.902;2023-04-24T08:18:14;5.90;;;5.50;;
17524;SDS011;40431;52.198;9.902;2023-04-24T08:20:40;5.73;;;5.23;;
17524;SDS011;40431;52.198;9.902;2023-04-24T08:23:07;5.90;;;5.50;;
17524;SDS011;40431;52.198;9.902;2023-04-24T08:25:34;5.80;;;5.37;;
17524;SDS011;40431;52.198;9.902;2023-04-24T08:28:01;5.70;;;5.30;;
17524;SDS011;40431;52.198;9.902;2023-04-24T08:30:28;5.60;;;5.03;;
17524;SDS011;40431;52.198;9.902;2023-04-24T08:32:56;5.50;;;5.10;;
17524;SDS011;40431;52.198;9.902;2023-04-24T08:35:23;5.83;;;5.43;;
17524;SDS011;40431;52.198;9.902;2023-04-24T08:37:49;6.33;;;5.93;;
17524;SDS011;40431;52.198;9.902;2023-04-24T08:40:16;5.10;;;4.80;;
17524;SDS011;40431;52.198;9.902;2023-04-24T08:42:42;5.47;;;5.07;;
17524;SDS011;40431;52.198;9.902;2023-04-24T08:45:10;5.90;;;5.40;;
17524;SDS011;40431;52.198;9.902;2023-04-24T08:47:38;5.17;;;4.87;;
17524;SDS011;40431;52.198;9.902;2023-04-24T08:50:07;4.87;;;4.57;;
17524;SDS011;40431;52.198;9.902;2023-04-24T08:52:35;4.53;;;4.23;;
17524;SDS011;40431;52.198;9.902;2023-04-24T08:55:01;4.37;;;4.07;;
17524;SDS011;40431;52.198;9.902;2023-04-24T08:57:28;3.40;;;3.20;;
17524;SDS011;40431;52.198;9.902;2023-04-24T08:59:55;4.07;;;3.80;;
17524;SDS011;40431;52.198;9.902;2023-04-24T09:02:22;3.23;;;3.03;;
17524;SDS011;40431;52.198;9.902;2023-04-24T09:04:49;4.07;;;3.73;;
17524;SDS011;40431;52.198;9.902;2023-04-24T09:07:18;3.73;;;3.50;;
17524;SDS011;40431;52.198;9.902;2023-04-24T09:09:46;4.13;;;3.80;;
17524;SDS011;40431;52.198;9.902;2023-04-24T09:12:12;4.50;;;3.93;;
17524;SDS011;40431;52.198;9.902;2023-04-24T09:14:39;4.73;;;4.43;;
17524;SDS011;40431;52.198;9.902;2023-04-24T09:17:09;4.67;;;4.27;;
17524;SDS011;40431;52.198;9.902;2023-04-24T09:19:36;4.43;;;4.10;;
17524;SDS011;40431;52.198;9.902;2023-04-24T09:22:04;3.63;;;3.43;;
17524;SDS011;40431;52.198;9.902;2023-04-24T09:24:33;3.10;;;2.80;;
17524;SDS011;40431;52.198;9.902;2023-04-24T09:27:00;3.20;;;3.00;;
17524;SDS011;40431;52.198;9.902;2023-04-24T09:29:27;4.33;;;3.93;;
17524;SDS011;40431;52.198;9.902;2023-04-24T09:31:54;4.37;;;4.07;;
17524;SDS011;40431;52.198;9.902;2023-04-24T09:34:21;4.00;;;3.80;;
17524;SDS011;40431;52.198;9.902;2023-04-24T09:36:49;3.90;;;3.70;;
17524;SDS011;40431;52.198;9.902;2023-04-24T09:39:16;3.23;;;3.03;;
17524;SDS011;40431;52.198;9.902;2023-04-24T09:41:46;4.33;;;4.03;;
17524;SDS011;40431;52.198;9.902;2023-04-24T09:44:14;3.20;;;3.00;;
17524;SDS011;40431;52.198;9.902;2023-04-24T09:46:43;2.50;;;2.30;;
17524;SDS011;40431;52.198;9.902;2023-04-24T09:49:14;2.50;;;2.40;;
17524;SDS011;40431;52.198;9.902;2023-04-24T09:51:41;3.63;;;2.47;;
17524;SDS011;40431;52.198;9.902;2023-04-24T09:54:13;2.63;;;2.43;;
17524;SDS011;40431;52.198;9.902;2023-04-24T09:56:42;2.37;;;2.17;;
17524;SDS011;40431;52.198;9.902;2023-04-24T09:59:11;2.33;;;2.17;;
17524;SDS011;40431;52.198;9.902;2023-04-24T10:01:38;2.60;;;2.50;;
17524;SDS011;40431;52.198;9.902;2023-04-24T10:04:14;2.37;;;2.27;;
17524;SDS011;40431;52.198;9.902;2023-04-24T10:06:41;2.60;;;2.40;;
17524;SDS011;40431;52.198;9.902;2023-04-24T10:09:08;2.00;;;1.90;;
17524;SDS011;40431;52.198;9.902;2023-04-24T10:11:36;2.33;;;2.13;;
17524;SDS011;40431;52.198;9.902;2023-04-24T10:14:03;6.03;;;2.30;;
17524;SDS011;40431;52.198;9.902;2023-04-24T10:16:31;2.13;;;2.03;;
17524;SDS011;40431;52.198;9.902;2023-04-24T10:18:58;2.33;;;2.23;;
17524;SDS011;40431;52.198;9.902;2023-04-24T10:21:26;2.67;;;2.47;;
17524;SDS011;40431;52.198;9.902;2023-04-24T10:23:52;2.60;;;2.47;;
17524;SDS011;40431;52.198;9.902;2023-04-24T10:26:20;2.20;;;2.10;;
17524;SDS011;40431;52.198;9.902;2023-04-24T10:28:48;2.40;;;2.20;;
17524;SDS011;40431;52.198;9.902;2023-04-24T10:31:14;2.53;;;2.43;;
17524;SDS011;40431;52.198;9.902;2023-04-24T10:33:43;2.40;;;2.30;;
17524;SDS011;40431;52.198;9.902;2023-04-24T10:36:09;2.60;;;2.40;;
17524;SDS011;40431;52.198;9.902;2023-04-24T10:38:38;2.87;;;2.67;;
17524;SDS011;40431;52.198;9.902;2023-04-24T10:41:06;2.40;;;2.20;;
17524;SDS011;40431;52.198;9.902;2023-04-24T10:43:34;2.77;;;2.57;;
17524;SDS011;40431;52.198;9.902;2023-04-24T10:46:01;2.57;;;2.47;;
17524;SDS011;40431;52.198;9.902;2023-04-24T10:48:28;3.90;;;2.20;;
17524;SDS011;40431;52.198;9.902;2023-04-24T10:50:57;2.50;;;2.40;;
17524;SDS011;40431;52.198;9.902;2023-04-24T10:53:23;3.00;;;2.80;;
17524;SDS011;40431;52.198;9.902;2023-04-24T10:55:56;2.60;;;2.40;;
17524;SDS011;40431;52.198;9.902;2023-04-24T10:58:25;2.00;;;1.90;;
17524;SDS011;40431;52.198;9.902;2023-04-24T11:01:02;2.60;;;2.50;;
17524;SDS011;40431;52.198;9.902;2023-04-24T11:03:29;2.50;;;2.40;;
17524;SDS011;40431;52.198;9.902;2023-04-24T11:05:59;2.73;;;2.53;;
17524;SDS011;40431;52.198;9.902;2023-04-24T11:08:28;2.27;;;2.13;;
17524;SDS011;40431;52.198;9.902;2023-04-24T11:10:57;2.00;;;1.87;;
17524;SDS011;40431;52.198;9.902;2023-04-24T11:13:25;1.70;;;1.60;;
17524;SDS011;40431;52.198;9.902;2023-04-24T11:16:11;1.70;;;1.60;;
17524;SDS011;40431;52.198;9.902;2023-04-24T11:18:38;2.00;;;1.50;;
17524;SDS011;40431;52.198;9.902;2023-04-24T11:21:11;1.30;;;1.20;;
17524;SDS011;40431;52.198;9.902;2023-04-24T11:23:38;1.30;;;1.30;;
17524;SDS011;40431;52.198;9.902;2023-04-24T11:26:12;1.27;;;1.27;;
17524;SDS011;40431;52.198;9.902;2023-04-24T11:28:43;1.67;;;1.57;;
17524;SDS011;40431;52.198;9.902;2023-04-24T11:34:08;1.60;;;1.50;;
17524;SDS011;40431;52.198;9.902;2023-04-24T11:36:38;1.50;;;1.40;;
17524;SDS011;40431;52.198;9.902;2023-04-24T11:39:05;2.00;;;1.90;;
17524;SDS011;40431;52.198;9.902;2023-04-24T11:41:32;3.27;;;2.00;;
17524;SDS011;40431;52.198;9.902;2023-04-24T11:43:59;2.00;;;1.90;;
17524;SDS011;40431;52.198;9.902;2023-04-24T11:46:27;2.10;;;2.00;;
17524;SDS011;40431;52.198;9.902;2023-04-24T11:48:54;1.90;;;1.80;;
17524;SDS011;40431;52.198;9.902;2023-04-24T11:51:21;1.60;;;1.50;;
17524;SDS011;40431;52.198;9.902;2023-04-24T11:53:49;1.23;;;1.23;;
17524;SDS011;40431;52.198;9.902;2023-04-24T11:56:17;1.60;;;1.50;;
17524;SDS011;40431;52.198;9.902;2023-04-24T11:58:44;1.90;;;1.80;;
17524;SDS011;40431;52.198;9.902;2023-04-24T12:01:10;1.97;;;1.87;;
17524;SDS011;40431;52.198;9.902;2023-04-24T12:03:37;1.33;;;1.33;;
17524;SDS011;40431;52.198;9.902;2023-04-24T12:06:06;1.73;;;1.63;;
17524;SDS011;40431;52.198;9.902;2023-04-24T12:08:33;1.57;;;1.47;;
17524;SDS011;40431;52.198;9.902;2023-04-24T12:11:01;1.80;;;1.70;;
17524;SDS011;40431;52.198;9.902;2023-04-24T12:13:28;1.50;;;1.40;;
17524;SDS011;40431;52.198;9.902;2023-04-24T12:15:54;1.70;;;1.60;;
17524;SDS011;40431;52.198;9.902;2023-04-24T12:18:21;1.53;;;1.43;;
17524;SDS011;40431;52.198;9.902;2023-04-24T12:20:48;1.90;;;1.80;;
17524;SDS011;40431;52.198;9.902;2023-04-24T12:23:15;1.30;;;1.20;;
17524;SDS011;40431;52.198;9.902;2023-04-24T12:25:42;0.90;;;0.90;;
17524;SDS011;40431;52.198;9.902;2023-04-24T12:28:11;1.00;;;1.00;;
17524;SDS011;40431;52.198;9.902;2023-04-24T12:30:39;1.03;;;1.00;;
17524;SDS011;40431;52.198;9.902;2023-04-24T12:33:07;1.07;;;1.07;;
17524;SDS011;40431;52.198;9.902;2023-04-24T12:35:34;1.10;;;1.10;;
17524;SDS011;40431;52.198;9.902;2023-04-24T12:38:06;1.50;;;1.40;;
17524;SDS011;40431;52.198;9.902;2023-04-24T12:40:34;1.20;;;1.20;;
17524;SDS011;40431;52.198;9.902;2023-04-24T12:43:00;1.33;;;1.33;;
17524;SDS011;40431;52.198;9.902;2023-04-24T12:45:28;1.30;;;1.30;;
17524;SDS011;40431;52.198;9.902;2023-04-24T12:47:55;1.47;;;1.40;;
17524;SDS011;40431;52.198;9.902;2023-04-24T12:50:21;1.40;;;1.23;;
17524;SDS011;40431;52.198;9.902;2023-04-24T12:52:48;1.17;;;1.17;;
17524;SDS011;40431;52.198;9.902;2023-04-24T12:55:14;1.23;;;1.23;;
17524;SDS011;40431;52.198;9.902;2023-04-24T12:57:41;1.67;;;1.57;;
17524;SDS011;40431;52.198;9.902;2023-04-24T13:00:08;1.70;;;1.60;;
17524;SDS011;40431;52.198;9.902;2023-04-24T13:02:36;1.93;;;1.20;;
17524;SDS011;40431;52.198;9.902;2023-04-24T13:05:03;1.50;;;1.40;;
17524;SDS011;40431;52.198;9.902;2023-04-24T13:07:29;1.03;;;1.03;;
17524;SDS011;40431;52.198;9.902;2023-04-24T13:09:56;1.30;;;1.30;;
17524;SDS011;40431;52.198;9.902;2023-04-24T13:12:22;1.60;;;1.50;;
17524;SDS011;40431;52.198;9.902;2023-04-24T13:14:50;1.40;;;1.40;;
17524;SDS011;40431;52.198;9.902;2023-04-24T13:17:16;1.43;;;1.40;;
17524;SDS011;40431;52.198;9.902;2023-04-24T13:19:44;1.47;;;1.47;;
17524;SDS011;40431;52.198;9.902;2023-04-24T13:22:11;1.60;;;1.50;;
17524;SDS011;40431;52.198;9.902;2023-04-24T13:24:38;2.23;;;1.30;;
17524;SDS011;40431;52.198;9.902;2023-04-24T13:27:06;1.20;;;1.20;;
17524;SDS011;40431;52.198;9.902;2023-04-24T13:29:33;1.53;;;1.00;;
17524;SDS011;40431;52.198;9.902;2023-04-24T13:31:59;1.17;;;0.97;;
17524;SDS011;40431;52.198;9.902;2023-04-24T13:34:26;1.40;;;1.30;;
17524;SDS011;40431;52.198;9.902;2023-04-24T13:36:54;1.37;;;1.27;;
17524;SDS011;40431;52.198;9.902;2023-04-24T13:39:22;1.00;;;1.00;;
17524;SDS011;40431;52.198;9.902;2023-04-24T13:41:49;1.20;;;1.20;;
17524;SDS011;40431;52.198;9.902;2023-04-24T13:44:16;1.20;;;1.20;;
17524;SDS011;40431;52.198;9.902;2023-04-24T13:46:43;1.33;;;1.33;;
17524;SDS011;40431;52.198;9.902;2023-04-24T13:49:10;1.30;;;1.30;;
17524;SDS011;40431;52.198;9.902;2023-04-24T13:51:37;1.30;;;1.30;;
17524;SDS011;40431;52.198;9.902;2023-04-24T13:54:06;1.27;;;1.27;;
17524;SDS011;40431;52.198;9.902;2023-04-24T13:56:32;0.87;;;0.87;;
17524;SDS011;40431;52.198;9.902;2023-04-24T13:58:59;1.10;;;1.10;;
17524;SDS011;40431;52.198;9.902;2023-04-24T14:01:25;1.10;;;1.10;;
17524;SDS011;40431;52.198;9.902;2023-04-24T14:03:52;0.93;;;0.93;;
17524;SDS011;40431;52.198;9.902;2023-04-24T14:06:19;1.00;;;1.00;;
17524;SDS011;40431;52.198;9.902;2023-04-24T14:08:46;1.00;;;1.00;;
17524;SDS011;40431;52.198;9.902;2023-04-24T14:11:14;1.00;;;1.00;;
17524;SDS011;40431;52.198;9.902;2023-04-24T14:13:41;0.80;;;0.80;;
17524;SDS011;40431;52.198;9.902;2023-04-24T14:16:07;1.03;;;1.03;;
17524;SDS011;40431;52.198;9.902;2023-04-24T14:18:34;1.10;;;1.10;;
17524;SDS011;40431;52.198;9.902;2023-04-24T14:21:01;1.10;;;1.10;;
17524;SDS011;40431;52.198;9.902;2023-04-24T14:23:27;1.10;;;1.10;;
17524;SDS011;40431;52.198;9.902;2023-04-24T14:25:54;1.40;;;1.30;;
17524;SDS011;40431;52.198;9.902;2023-04-24T14:28:22;0.80;;;0.80;;
17524;SDS011;40431;52.198;9.902;2023-04-24T14:30:48;1.30;;;1.30;;
17524;SDS011;40431;52.198;9.902;2023-04-24T14:33:15;1.20;;;1.20;;
17524;SDS011;40431;52.198;9.902;2023-04-24T14:35:41;1.53;;;1.43;;
17524;SDS011;40431;52.198;9.902;2023-04-24T14:38:08;1.63;;;1.57;;
17524;SDS011;40431;52.198;9.902;2023-04-24T14:40:35;1.70;;;1.60;;
17524;SDS011;40431;52.198;9.902;2023-04-24T14:43:02;2.10;;;2.00;;
17524;SDS011;40431;52.198;9.902;2023-04-24T14:45:29;2.23;;;2.00;;
17524;SDS011;40431;52.198;9.902;2023-04-24T14:47:56;2.17;;;2.07;;
17524;SDS011;40431;52.198;9.902;2023-04-24T14:50:22;3.20;;;3.00;;